Time;durP1;ratioP1;P1;durP2;ratioP2;P2;SDS_P1;SDS_P2;PMS_P1;PMS_P2;Temp;Humidity;BMP_temperature;BMP_pressure;BME280_temperature;BME280_humidity;BME280_pressure;Samples;Min_cycle;Max_cycle;Signal;HPM_P1;HPM_P2
2022/10/23 00:00:22;;;;;;;26.95;19.25;;;10.40;99.90;;;;;;5058915;28;20072;-65
2022/10/23 00:02:52;;;;;;;35.28;21.13;;;10.40;99.90;;;;;;5051922;28;20044;-66
2022/10/23 00:05:19;;;;;;;28.58;19.77;;;10.40;99.90;;;;;;5054730;28;20056;-66
2022/10/23 00:07:51;;;;;;;36.03;20.58;;;10.40;99.90;;;;;;5059944;28;20080;-65
2022/10/23 00:10:18;;;;;;;24.77;17.33;;;10.40;99.90;;;;;;5056238;28;20162;-65
2022/10/23 00:12:44;;;;;;;27.35;17.40;;;10.30;99.90;;;;;;5054777;28;20041;-65
2022/10/23 00:15:10;;;;;;;26.33;17.80;;;10.30;99.90;;;;;;5064493;28;20029;-65
2022/10/23 00:17:36;;;;;;;24.70;17.83;;;10.20;99.90;;;;;;5059737;28;20049;-65
2022/10/23 00:20:02;;;;;;;44.35;23.17;;;10.30;99.90;;;;;;5058003;28;20342;-65
2022/10/23 00:22:27;;;;;;;29.23;20.70;;;10.20;99.90;;;;;;5069895;28;20067;-65
2022/10/23 00:24:53;;;;;;;39.55;22.30;;;10.20;99.90;;;;;;5055533;28;20033;-65
2022/10/23 00:27:19;;;;;;;32.40;19.75;;;10.20;99.90;;;;;;5060203;28;20388;-65
2022/10/23 00:29:44;;;;;;;24.40;19.65;;;10.20;99.90;;;;;;5062377;28;20359;-65
2022/10/23 00:32:10;;;;;;;31.38;20.98;;;10.20;99.90;;;;;;5052036;28;20392;-65
2022/10/23 00:34:36;;;;;;;30.75;20.88;;;10.20;99.90;;;;;;5057242;28;20052;-65
2022/10/23 00:37:01;;;;;;;43.10;22.48;;;10.20;99.90;;;;;;5059338;28;20434;-65
2022/10/23 00:39:27;;;;;;;60.10;26.83;;;10.20;99.90;;;;;;5058587;28;20040;-65
2022/10/23 00:41:53;;;;;;;43.72;24.02;;;10.30;99.90;;;;;;5055196;28;20052;-65
2022/10/23 00:44:21;;;;;;;50.10;26.83;;;10.20;99.90;;;;;;5060172;28;20118;-65
2022/10/23 00:46:47;;;;;;;32.92;20.08;;;10.30;99.90;;;;;;5059181;28;20323;-65
2022/10/23 00:49:14;;;;;;;35.97;21.60;;;10.30;99.90;;;;;;5060422;28;20084;-65
2022/10/23 00:51:50;;;;;;;56.10;27.42;;;10.30;99.90;;;;;;5060693;28;20044;-65
2022/10/23 00:54:18;;;;;;;47.65;25.58;;;10.30;99.90;;;;;;5057213;28;20349;-65
2022/10/23 00:56:44;;;;;;;35.03;21.80;;;10.30;99.90;;;;;;5060626;28;20129;-65
2022/10/23 00:59:10;;;;;;;39.92;24.38;;;10.30;99.90;;;;;;5050607;28;20120;-65
2022/10/23 01:01:36;;;;;;;32.40;20.95;;;10.40;99.90;;;;;;5058338;28;20136;-65
2022/10/23 01:04:04;;;;;;;62.50;29.02;;;10.30;99.90;;;;;;5057296;28;20033;-65
2022/10/23 01:06:36;;;;;;;36.75;21.98;;;10.40;99.90;;;;;;5053006;28;20151;-65
2022/10/23 01:09:28;;;;;;;62.63;25.42;;;10.40;99.90;;;;;;5061253;28;20074;-65
2022/10/23 01:11:59;;;;;;;44.40;24.27;;;10.40;99.90;;;;;;5053886;28;20041;-65
2022/10/23 01:15:04;;;;;;;34.28;20.17;;;10.40;99.90;;;;;;5056539;28;20325;-65
2022/10/23 01:17:53;;;;;;;33.88;20.77;;;10.50;99.90;;;;;;5033428;28;20049;-65
2022/10/23 01:20:24;;;;;;;33.20;21.45;;;10.50;99.90;;;;;;5051693;28;20341;-65
2022/10/23 01:23:24;;;;;;;54.83;26.85;;;10.50;99.90;;;;;;5054270;28;20347;-65
2022/10/23 01:26:08;;;;;;;32.75;20.65;;;10.60;99.90;;;;;;5054875;28;20468;-65
2022/10/23 01:28:47;;;;;;;42.67;23.10;;;10.60;99.90;;;;;;5055196;28;20110;-66
2022/10/23 01:31:17;;;;;;;83.72;30.40;;;10.60;99.90;;;;;;5058569;28;20119;-65
2022/10/23 01:33:57;;;;;;;41.40;23.48;;;10.70;99.90;;;;;;5056996;28;20056;-65
2022/10/23 01:36:28;;;;;;;49.13;24.35;;;10.70;99.90;;;;;;5058003;28;20055;-65
2022/10/23 01:38:56;;;;;;;92.22;32.28;;;10.70;99.90;;;;;;5058588;28;20087;-65
2022/10/23 01:41:31;;;;;;;34.45;19.42;;;10.70;99.90;;;;;;5057507;28;20045;-65
2022/10/23 01:44:09;;;;;;;56.30;25.08;;;10.60;99.90;;;;;;5058875;28;20086;-65
2022/10/23 01:46:36;;;;;;;47.67;22.23;;;10.60;99.90;;;;;;5054613;28;20373;-65
2022/10/23 01:49:05;;;;;;;33.88;20.00;;;10.60;99.90;;;;;;5049673;28;20409;-65
2022/10/23 01:51:32;;;;;;;60.10;23.92;;;10.60;99.90;;;;;;5059538;28;20045;-65
2022/10/23 01:53:59;;;;;;;54.13;23.95;;;10.60;99.90;;;;;;5056675;28;20163;-65
2022/10/23 01:56:30;;;;;;;45.95;21.33;;;10.50;99.90;;;;;;5062222;28;20426;-65
2022/10/23 01:58:58;;;;;;;25.80;17.17;;;10.50;99.90;;;;;;5055208;28;20040;-65
2022/10/23 02:01:28;;;;;;;26.83;18.27;;;10.50;99.90;;;;;;5055286;28;20492;-65
2022/10/23 02:03:55;;;;;;;44.65;22.67;;;10.50;99.90;;;;;;5055993;28;20048;-65
2022/10/23 02:06:21;;;;;;;39.60;19.23;;;10.40;99.90;;;;;;5060329;28;20067;-65
2022/10/23 02:08:47;;;;;;;30.27;17.77;;;10.40;99.90;;;;;;5056801;28;20126;-65
2022/10/23 02:11:15;;;;;;;23.33;16.63;;;10.30;99.90;;;;;;5059063;28;20502;-65
2022/10/23 02:13:55;;;;;;;35.47;18.88;;;10.30;99.90;;;;;;5055052;28;20105;-65
2022/10/23 02:16:25;;;;;;;27.25;17.02;;;10.30;99.90;;;;;;5061961;28;20035;-65
2022/10/23 02:19:01;;;;;;;28.63;17.80;;;10.30;99.90;;;;;;5060028;28;20063;-65
2022/10/23 02:21:47;;;;;;;24.30;17.17;;;10.30;99.90;;;;;;5054771;28;20040;-65
2022/10/23 02:24:16;;;;;;;49.60;22.52;;;10.30;99.90;;;;;;5052653;28;20047;-65
2022/10/23 02:27:28;;;;;;;32.30;18.23;;;10.30;99.90;;;;;;5061402;28;20504;-65
2022/10/23 02:30:00;;;;;;;36.22;18.98;;;10.30;99.90;;;;;;5055969;28;20056;-65
2022/10/23 02:32:27;;;;;;;27.58;17.65;;;10.20;99.90;;;;;;5059634;28;20100;-64
2022/10/23 02:34:53;;;;;;;36.80;19.92;;;10.20;99.90;;;;;;5055970;28;20035;-65
2022/10/23 02:37:19;;;;;;;27.88;17.95;;;10.20;99.90;;;;;;5065244;28;20142;-66
2022/10/23 02:39:44;;;;;;;28.58;18.00;;;10.20;99.90;;;;;;5058727;28;20041;-65
2022/10/23 02:42:16;;;;;;;34.55;19.67;;;10.20;99.90;;;;;;5058486;28;20479;-65
2022/10/23 02:44:56;;;;;;;37.28;20.20;;;10.20;99.90;;;;;;5054207;28;20442;-65
2022/10/23 02:47:35;;;;;;;28.60;17.65;;;10.20;99.90;;;;;;5058755;28;20349;-65
2022/10/23 02:50:04;;;;;;;37.35;20.02;;;10.10;99.90;;;;;;5060506;28;20099;-65
2022/10/23 02:52:58;;;;;;;30.80;17.80;;;10.10;99.90;;;;;;5059116;28;20218;-66
2022/10/23 02:55:35;;;;;;;35.20;18.55;;;10.10;99.90;;;;;;5058305;28;20041;-65
2022/10/23 02:58:07;;;;;;;40.58;19.48;;;10.10;99.90;;;;;;5059212;28;20403;-64
2022/10/23 03:00:36;;;;;;;43.75;21.08;;;10.10;99.90;;;;;;5060978;28;20036;-65
2022/10/23 03:03:11;;;;;;;37.45;18.92;;;10.10;99.90;;;;;;5065125;28;20525;-65
2022/10/23 03:05:37;;;;;;;;;;;10.10;99.90;;;;;;5058294;28;20032;-65
2022/10/23 03:08:05;;;;;;;36.67;18.05;;;10.10;99.90;;;;;;5064286;28;20261;-65
2022/10/23 03:10:30;;;;;;;44.60;20.27;;;10.00;99.90;;;;;;5059293;28;20044;-66
2022/10/23 03:12:56;;;;;;;40.50;20.83;;;10.00;99.90;;;;;;5068100;28;20028;-66
2022/10/23 03:15:22;;;;;;;45.90;20.60;;;10.00;99.90;;;;;;5061707;28;20086;-66
2022/10/23 03:17:47;;;;;;;50.30;22.67;;;10.00;99.90;;;;;;5058583;28;20528;-66
2022/10/23 03:20:13;;;;;;;51.05;22.27;;;10.10;99.90;;;;;;5059442;28;20139;-65
2022/10/23 03:22:39;;;;;;;58.55;24.13;;;10.10;99.90;;;;;;5056777;28;20409;-65
2022/10/23 03:25:05;;;;;;;47.85;23.00;;;10.00;99.90;;;;;;5060819;28;20049;-64
2022/10/23 03:27:32;;;;;;;53.35;22.90;;;10.10;99.90;;;;;;5061168;28;20484;-65
2022/10/23 03:29:57;;;;;;;35.90;19.83;;;10.10;99.90;;;;;;5058050;28;20037;-65
2022/10/23 03:32:23;;;;;;;71.50;26.48;;;10.00;99.90;;;;;;5056402;28;20514;-65
2022/10/23 03:34:48;;;;;;;55.00;23.05;;;10.10;99.90;;;;;;5060147;28;20041;-65
2022/10/23 03:37:14;;;;;;;61.50;26.02;;;10.10;99.90;;;;;;5059086;28;20036;-65
2022/10/23 03:39:40;;;;;;;44.92;21.95;;;10.00;99.90;;;;;;5056955;28;20036;-66
2022/10/23 03:42:05;;;;;;;64.13;26.75;;;10.00;99.90;;;;;;5055620;28;20091;-65
2022/10/23 03:44:32;;;;;;;61.20;25.17;;;10.10;99.90;;;;;;5062151;28;20041;-66
2022/10/23 03:46:59;;;;;;;35.70;21.20;;;10.10;99.90;;;;;;5060342;28;20040;-65
2022/10/23 03:49:24;;;;;;;47.70;23.85;;;10.10;99.90;;;;;;5056922;28;20037;-65
2022/10/23 03:51:53;;;;;;;53.28;24.98;;;10.10;99.90;;;;;;5056046;28;20400;-65
2022/10/23 03:54:23;;;;;;;47.60;23.77;;;10.10;99.90;;;;;;5062218;28;20515;-64
2022/10/23 03:56:49;;;;;;;63.80;27.77;;;10.10;99.90;;;;;;5059606;28;20067;-65
2022/10/23 03:59:15;;;;;;;43.08;23.67;;;10.10;99.90;;;;;;5062952;28;20375;-65
2022/10/23 04:01:40;;;;;;;48.33;23.75;;;10.10;99.90;;;;;;5056810;28;20044;-65
2022/10/23 04:04:06;;;;;;;35.25;20.00;;;10.10;99.90;;;;;;5061848;28;20041;-65
2022/10/23 04:06:32;;;;;;;33.75;21.15;;;10.10;99.90;;;;;;5059646;28;20037;-65
2022/10/23 04:08:57;;;;;;;58.35;24.88;;;10.10;99.90;;;;;;5058271;28;20040;-64
2022/10/23 04:11:23;;;;;;;47.30;23.08;;;10.10;99.90;;;;;;5055693;28;20345;-65
2022/10/23 04:13:49;;;;;;;46.92;23.27;;;10.10;99.90;;;;;;5060659;28;20046;-64
2022/10/23 04:16:14;;;;;;;60.08;25.90;;;10.10;99.90;;;;;;5059613;28;20036;-65
2022/10/23 04:18:41;;;;;;;34.33;21.67;;;10.10;99.90;;;;;;5057091;28;20528;-64
2022/10/23 04:21:07;;;;;;;43.25;23.60;;;10.10;99.90;;;;;;5059335;28;20044;-65
2022/10/23 04:23:33;;;;;;;40.72;21.20;;;10.00;99.90;;;;;;5062875;28;20453;-65
2022/10/23 04:25:58;;;;;;;44.40;22.63;;;10.10;99.90;;;;;;5058216;28;20035;-65
2022/10/23 04:28:24;;;;;;;34.17;19.40;;;10.00;99.90;;;;;;5054899;28;20040;-65
2022/10/23 04:30:51;;;;;;;65.75;27.02;;;10.00;99.90;;;;;;5068206;28;20024;-65
2022/10/23 04:33:17;;;;;;;53.80;24.20;;;10.00;99.90;;;;;;5058733;28;20642;-64
2022/10/23 04:35:43;;;;;;;45.85;22.25;;;9.90;99.90;;;;;;5060168;28;20526;-64
2022/10/23 04:38:08;;;;;;;37.20;20.45;;;9.90;99.90;;;;;;5062107;28;20041;-64
2022/10/23 04:40:34;;;;;;;36.95;20.88;;;9.90;99.90;;;;;;5063094;28;20583;-65
2022/10/23 04:43:00;;;;;;;34.28;20.13;;;9.80;99.90;;;;;;5057781;28;20174;-64
2022/10/23 04:45:26;;;;;;;43.25;21.52;;;9.80;99.90;;;;;;5062306;28;20504;-65
2022/10/23 04:47:55;;;;;;;38.13;22.73;;;9.90;99.90;;;;;;5061948;28;20036;-65
2022/10/23 04:50:21;;;;;;;73.15;26.98;;;9.80;99.90;;;;;;5057468;28;20115;-64
2022/10/23 04:52:47;;;;;;;40.33;22.17;;;9.80;99.90;;;;;;5055256;28;20044;-65
2022/10/23 04:55:13;;;;;;;38.30;21.63;;;9.80;99.90;;;;;;5059552;28;20048;-65
2022/10/23 04:57:39;;;;;;;46.88;23.30;;;9.80;99.90;;;;;;5059353;28;20071;-64
2022/10/23 05:00:07;;;;;;;42.65;22.80;;;9.80;99.90;;;;;;5053661;28;20079;-65
2022/10/23 05:02:33;;;;;;;58.28;24.90;;;9.80;99.90;;;;;;5055741;28;20033;-66
2022/10/23 05:04:59;;;;;;;48.13;23.70;;;9.80;99.90;;;;;;5059362;28;20412;-65
2022/10/23 05:07:24;;;;;;;38.05;21.85;;;9.80;99.90;;;;;;5053241;28;20061;-65
2022/10/23 05:09:50;;;;;;;48.83;25.20;;;9.80;99.90;;;;;;5057137;28;20037;-65
2022/10/23 05:12:16;;;;;;;50.08;25.13;;;9.80;99.90;;;;;;5059980;28;20465;-65
2022/10/23 05:14:41;;;;;;;48.83;25.10;;;9.80;99.90;;;;;;5061635;28;20036;-65
2022/10/23 05:17:14;;;;;;;45.42;22.95;;;9.80;99.90;;;;;;5063997;28;20029;-65
2022/10/23 05:19:52;;;;;;;42.83;23.00;;;9.80;99.90;;;;;;5037036;28;20147;-65
2022/10/23 05:22:19;;;;;;;52.50;24.85;;;9.70;99.90;;;;;;5058242;28;20041;-65
2022/10/23 05:24:45;;;;;;;47.92;24.35;;;9.70;99.90;;;;;;5055403;28;20036;-64
2022/10/23 05:27:10;;;;;;;64.10;26.73;;;9.70;99.90;;;;;;5052813;28;20033;-65
2022/10/23 05:29:36;;;;;;;45.63;23.35;;;9.70;99.90;;;;;;5054923;28;20420;-65
2022/10/23 05:32:05;;;;;;;39.65;21.67;;;9.70;99.90;;;;;;5057821;28;20075;-65
2022/10/23 05:34:33;;;;;;;46.45;23.98;;;9.70;99.90;;;;;;5054465;28;20049;-65
2022/10/23 05:37:01;;;;;;;42.28;23.15;;;9.70;99.90;;;;;;5052706;28;20041;-65
2022/10/23 05:39:27;;;;;;;48.15;23.83;;;9.70;99.90;;;;;;5056240;28;20048;-65
2022/10/23 05:41:53;;;;;;;44.97;22.73;;;9.70;99.90;;;;;;5060414;28;20036;-65
2022/10/23 05:44:20;;;;;;;60.38;26.65;;;9.70;99.90;;;;;;5054431;28;20404;-64
2022/10/23 05:46:46;;;;;;;43.00;21.90;;;9.70;99.90;;;;;;5058874;28;20041;-64
2022/10/23 05:49:12;;;;;;;56.13;25.77;;;9.70;99.90;;;;;;5057683;28;20044;-65
2022/10/23 05:51:39;;;;;;;40.05;22.67;;;9.70;99.90;;;;;;5057376;28;20041;-64
2022/10/23 05:54:08;;;;;;;52.90;25.20;;;9.70;99.90;;;;;;5059192;28;20119;-65
2022/10/23 05:56:35;;;;;;;52.03;24.58;;;9.80;99.90;;;;;;5054389;28;20141;-65
2022/10/23 05:59:01;;;;;;;46.72;23.30;;;9.70;99.90;;;;;;5056214;28;20040;-64
2022/10/23 06:01:27;;;;;;;52.90;25.92;;;9.70;99.90;;;;;;5057483;28;20032;-64
2022/10/23 06:03:52;;;;;;;50.15;24.42;;;9.80;99.90;;;;;;5060815;28;20045;-64
2022/10/23 06:06:18;;;;;;;52.90;26.35;;;9.80;99.90;;;;;;5054639;28;20033;-64
2022/10/23 06:08:43;;;;;;;86.15;30.38;;;9.80;99.90;;;;;;5055574;28;20381;-64
2022/10/23 06:11:12;;;;;;;55.10;25.58;;;9.80;99.90;;;;;;5057252;28;20060;-65
2022/10/23 06:13:38;;;;;;;42.53;23.35;;;9.80;99.90;;;;;;5057749;28;20127;-64
2022/10/23 06:16:15;;;;;;;44.72;24.15;;;9.80;99.90;;;;;;5058368;28;20075;-64
2022/10/23 06:18:41;;;;;;;41.53;24.25;;;9.80;99.90;;;;;;5053472;28;20052;-64
2022/10/23 06:21:07;;;;;;;39.60;21.83;;;9.80;99.90;;;;;;5054197;28;20063;-64
2022/10/23 06:23:34;;;;;;;39.30;22.90;;;9.80;99.90;;;;;;5054680;28;20454;-64
2022/10/23 06:26:00;;;;;;;68.30;28.63;;;9.90;99.90;;;;;;5064585;28;20116;-64
2022/10/23 06:28:26;;;;;;;40.42;22.35;;;9.90;99.90;;;;;;5051336;28;20482;-64
2022/10/23 06:30:52;;;;;;;43.45;22.80;;;9.90;99.90;;;;;;5053744;28;20036;-64
2022/10/23 06:33:18;;;;;;;62.28;27.50;;;10.00;99.90;;;;;;5053825;28;20127;-64
2022/10/23 06:35:43;;;;;;;53.10;26.15;;;10.00;99.90;;;;;;5058085;28;20114;-64
2022/10/23 06:38:09;;;;;;;55.67;26.13;;;10.00;99.90;;;;;;5058875;28;20033;-65
2022/10/23 06:40:36;;;;;;;57.58;26.65;;;10.00;99.90;;;;;;5057705;28;20052;-65
2022/10/23 06:43:02;;;;;;;54.30;25.88;;;10.00;99.90;;;;;;5050828;28;20041;-64
2022/10/23 06:45:28;;;;;;;35.78;22.58;;;10.10;99.90;;;;;;5061227;28;20352;-64
2022/10/23 06:47:55;;;;;;;36.45;21.00;;;10.10;99.90;;;;;;5056336;28;20048;-65
2022/10/23 06:50:20;;;;;;;38.75;22.55;;;10.10;99.90;;;;;;5064013;28;20044;-65
2022/10/23 06:52:46;;;;;;;42.28;23.58;;;10.20;99.90;;;;;;5051682;28;20040;-64
2022/10/23 06:55:12;;;;;;;37.65;21.60;;;10.20;99.90;;;;;;5055092;28;20044;-64
2022/10/23 06:57:38;;;;;;;49.05;24.55;;;10.20;99.90;;;;;;5057502;28;20049;-64
2022/10/23 07:00:04;;;;;;;44.35;23.75;;;10.20;99.90;;;;;;5061311;28;20063;-64
2022/10/23 07:02:29;;;;;;;34.75;21.33;;;10.30;99.90;;;;;;5048592;28;20179;-64
2022/10/23 07:04:55;;;;;;;35.83;21.35;;;10.30;99.90;;;;;;5055656;28;20120;-64
2022/10/23 07:07:21;;;;;;;52.83;24.52;;;10.30;99.90;;;;;;5058052;28;20077;-64
2022/10/23 07:09:46;;;;;;;36.08;21.60;;;10.40;99.90;;;;;;5061376;28;20041;-64
2022/10/23 07:12:12;;;;;;;45.78;24.05;;;10.30;99.90;;;;;;5059092;28;20396;-64
2022/10/23 07:14:38;;;;;;;34.60;20.73;;;10.40;99.90;;;;;;5053621;28;20044;-65
2022/10/23 07:17:03;;;;;;;48.60;23.15;;;10.40;99.90;;;;;;5054489;28;20045;-64
2022/10/23 07:19:29;;;;;;;35.03;21.00;;;10.50;99.90;;;;;;5052346;28;20065;-64
2022/10/23 07:21:55;;;;;;;51.90;24.40;;;10.50;99.90;;;;;;5060978;28;20384;-64
2022/10/23 07:24:21;;;;;;;35.08;21.48;;;10.50;99.90;;;;;;5055528;28;20507;-66
2022/10/23 07:26:47;;;;;;;45.60;23.45;;;10.60;99.90;;;;;;5061231;28;20037;-66
2022/10/23 07:29:13;;;;;;;47.35;23.17;;;10.60;99.90;;;;;;5053664;28;20433;-66
2022/10/23 07:31:38;;;;;;;32.28;19.23;;;10.60;99.90;;;;;;5061895;28;20037;-66
2022/10/23 07:34:05;;;;;;;32.03;21.40;;;10.70;99.90;;;;;;5039577;28;20048;-66
2022/10/23 07:36:31;;;;;;;37.67;19.83;;;10.70;99.90;;;;;;5062137;28;20437;-66
2022/10/23 07:38:57;;;;;;;36.65;19.40;;;10.80;99.90;;;;;;5057068;28;20041;-66
2022/10/23 07:41:22;;;;;;;30.23;18.38;;;10.80;99.90;;;;;;5060985;28;20060;-66
2022/10/23 07:43:48;;;;;;;39.28;21.83;;;10.80;99.90;;;;;;5062364;28;20037;-66
2022/10/23 07:46:14;;;;;;;38.55;22.08;;;10.90;99.90;;;;;;5062891;28;20113;-66
2022/10/23 07:48:40;;;;;;;39.13;19.67;;;10.90;99.90;;;;;;5060943;28;20045;-66
2022/10/23 07:51:12;;;;;;;27.00;18.58;;;11.00;99.90;;;;;;5054042;28;20049;-66
2022/10/23 07:53:38;;;;;;;41.05;20.42;;;11.00;99.90;;;;;;5060945;28;20164;-66
2022/10/23 07:56:15;;;;;;;28.60;18.38;;;11.00;99.90;;;;;;5059461;28;20058;-66
2022/10/23 07:58:42;;;;;;;29.88;17.08;;;11.10;99.90;;;;;;5053431;28;20044;-66
2022/10/23 08:01:21;;;;;;;28.35;17.05;;;11.10;99.90;;;;;;5052731;28;20133;-66
2022/10/23 08:03:46;;;;;;;28.35;18.77;;;11.30;99.90;;;;;;5054998;28;20036;-66
2022/10/23 08:06:12;;;;;;;25.85;18.02;;;11.30;99.90;;;;;;5057464;28;20094;-66
2022/10/23 08:08:38;;;;;;;21.80;16.00;;;11.30;99.90;;;;;;5062342;28;20071;-66
2022/10/23 08:11:04;;;;;;;31.58;16.70;;;11.30;99.90;;;;;;5057428;28;20099;-66
2022/10/23 08:13:30;;;;;;;28.17;16.77;;;11.40;99.90;;;;;;5058533;28;20511;-66
2022/10/23 08:15:57;;;;;;;28.27;16.73;;;11.50;99.90;;;;;;5057087;28;20045;-66
2022/10/23 08:18:23;;;;;;;23.77;15.52;;;11.60;99.90;;;;;;5051559;28;20500;-66
2022/10/23 08:20:51;;;;;;;27.52;16.30;;;11.60;99.90;;;;;;5058422;28;20037;-66
2022/10/23 08:23:18;;;;;;;27.52;14.38;;;11.60;99.90;;;;;;5058714;28;20037;-66
2022/10/23 08:25:44;;;;;;;24.85;15.27;;;11.70;99.90;;;;;;5054002;28;20091;-66
2022/10/23 08:28:10;;;;;;;19.33;13.90;;;11.70;99.90;;;;;;5052641;28;20484;-66
2022/10/23 08:30:36;;;;;;;26.13;13.48;;;11.90;99.90;;;;;;5059298;28;20325;-66
2022/10/23 08:33:05;;;;;;;24.13;13.88;;;11.90;99.90;;;;;;5058023;28;20079;-66
2022/10/23 08:35:37;;;;;;;23.90;13.50;;;12.00;99.90;;;;;;5059005;28;20531;-66
2022/10/23 08:38:04;;;;;;;15.43;12.07;;;12.10;99.90;;;;;;5049662;28;20547;-66
2022/10/23 08:40:29;;;;;;;24.23;11.93;;;12.10;99.90;;;;;;5060929;28;20043;-66
2022/10/23 08:43:10;;;;;;;20.63;12.15;;;12.20;99.90;;;;;;5056214;28;20032;-66
2022/10/23 08:46:00;;;;;;;19.65;11.38;;;12.30;99.90;;;;;;5051657;28;20029;-66
2022/10/23 08:48:31;;;;;;;19.15;11.10;;;12.40;99.90;;;;;;5052290;28;20048;-66
2022/10/23 08:51:05;;;;;;;15.93;9.55;;;12.40;99.90;;;;;;5059260;28;20452;-66
2022/10/23 08:53:42;;;;;;;16.13;10.27;;;12.50;99.90;;;;;;5058490;28;20047;-66
2022/10/23 08:56:22;;;;;;;19.95;10.05;;;12.60;99.90;;;;;;5056077;28;20036;-65
2022/10/23 08:59:06;;;;;;;11.50;8.50;;;12.70;99.90;;;;;;5054369;28;20122;-66
2022/10/23 09:01:36;;;;;;;16.33;8.98;;;12.90;99.90;;;;;;5058631;28;20108;-66
2022/10/23 09:04:03;;;;;;;15.23;9.25;;;13.10;99.90;;;;;;5064213;28;20508;-66
2022/10/23 09:06:41;;;;;;;11.43;9.23;;;13.20;99.90;;;;;;5057705;28;20447;-66
2022/10/23 09:09:28;;;;;;;15.13;9.20;;;13.30;99.90;;;;;;5057030;28;20032;-66
2022/10/23 09:12:05;;;;;;;15.27;8.82;;;13.50;99.90;;;;;;5058017;28;20040;-66
2022/10/23 09:14:57;;;;;;;10.57;7.93;;;13.70;99.90;;;;;;5063298;28;20051;-66
2022/10/23 09:17:31;;;;;;;13.90;7.70;;;13.80;99.90;;;;;;5054228;28;20374;-66
2022/10/23 09:20:24;;;;;;;10.77;7.93;;;13.90;99.90;;;;;;5036814;28;20124;-66
2022/10/23 09:23:11;;;;;;;12.15;7.70;;;14.00;99.90;;;;;;5060942;28;20420;-66
2022/10/23 09:25:39;;;;;;;10.90;7.25;;;14.10;99.90;;;;;;5062495;28;20485;-66
2022/10/23 09:28:05;;;;;;;11.85;7.93;;;14.20;99.90;;;;;;5055171;28;20037;-67
2022/10/23 09:30:36;;;;;;;10.48;6.90;;;14.20;99.90;;;;;;5058552;28;20067;-67
2022/10/23 09:33:16;;;;;;;10.68;6.50;;;14.30;99.90;;;;;;5054857;28;20077;-67
2022/10/23 09:36:01;;;;;;;10.27;7.00;;;14.40;99.90;;;;;;5056029;28;20096;-66
2022/10/23 09:38:31;;;;;;;9.80;6.55;;;14.50;99.90;;;;;;5054538;28;20045;-67
2022/10/23 09:41:18;;;;;;;9.98;6.72;;;14.60;99.90;;;;;;5058067;28;20048;-67
2022/10/23 09:43:44;;;;;;;12.35;6.28;;;14.60;99.90;;;;;;5052605;28;20400;-67
2022/10/23 09:46:10;;;;;;;7.22;5.70;;;14.70;99.90;;;;;;5058963;28;20044;-67
2022/10/23 09:48:38;;;;;;;8.85;5.65;;;14.70;99.90;;;;;;5056741;28;20110;-66
2022/10/23 09:51:18;;;;;;;7.50;5.57;;;14.80;99.90;;;;;;5057492;28;20048;-67
2022/10/23 09:53:52;;;;;;;9.00;6.45;;;14.80;99.90;;;;;;5056244;28;20045;-67
2022/10/23 09:56:35;;;;;;;8.75;5.55;;;14.80;99.90;;;;;;5054727;28;20530;-67
2022/10/23 09:59:02;;;;;;;9.38;5.55;;;14.90;99.90;;;;;;5055662;28;20055;-67
2022/10/23 10:01:35;;;;;;;10.35;6.18;;;14.90;99.90;;;;;;5062138;28;20036;-67
2022/10/23 10:04:01;;;;;;;10.80;5.90;;;15.00;99.90;;;;;;5057475;28;20047;-67
2022/10/23 10:06:29;;;;;;;13.00;5.80;;;15.10;99.90;;;;;;5057876;28;20093;-67
2022/10/23 10:09:07;;;;;;;6.93;5.07;;;15.10;99.90;;;;;;5055440;28;20129;-67
2022/10/23 10:11:51;;;;;;;10.45;5.38;;;15.30;99.90;;;;;;5060197;28;20529;-67
2022/10/23 10:14:54;;;;;;;7.88;4.75;;;15.30;99.90;;;;;;5053986;28;20045;-67
2022/10/23 10:17:38;;;;;;;15.70;5.88;;;15.40;99.90;;;;;;5055909;28;20484;-67
2022/10/23 10:20:25;;;;;;;11.27;5.20;;;15.30;99.90;;;;;;5052617;28;20689;-66
2022/10/23 10:23:02;;;;;;;10.82;5.93;;;15.30;99.90;;;;;;5050792;28;20044;-66
2022/10/23 10:25:34;;;;;;;12.55;4.65;;;15.50;99.90;;;;;;5054668;28;20065;-66
2022/10/23 10:28:26;;;;;;;9.80;4.97;;;15.80;99.90;;;;;;5056649;28;20048;-67
2022/10/23 10:31:17;;;;;;;9.30;4.30;;;16.00;99.90;;;;;;5059359;28;20044;-66
2022/10/23 10:34:30;;;;;;;6.78;4.50;;;16.10;99.90;;;;;;5061056;28;20048;-66
2022/10/23 10:37:08;;;;;;;8.50;4.55;;;16.10;99.90;;;;;;5040674;28;20531;-66
2022/10/23 10:40:04;;;;;;;9.25;4.65;;;15.90;99.90;;;;;;5057060;28;20170;-67
2022/10/23 10:42:46;;;;;;;8.20;4.40;;;15.80;99.90;;;;;;5056369;28;20484;-66
2022/10/23 10:45:24;;;;;;;8.73;4.43;;;15.80;99.90;;;;;;5057484;28;20036;-66
2022/10/23 10:48:00;;;;;;;7.82;4.55;;;15.70;99.90;;;;;;5054769;28;20097;-66
2022/10/23 10:50:33;;;;;;;10.57;4.45;;;15.70;99.90;;;;;;5056582;28;20067;-66
2022/10/23 10:53:08;;;;;;;9.82;3.75;;;15.70;99.90;;;;;;5050453;28;20538;-66
2022/10/23 10:55:39;;;;;;;8.43;4.05;;;15.70;99.90;;;;;;5055526;28;20037;-66
2022/10/23 10:58:15;;;;;;;8.18;3.45;;;15.60;99.90;;;;;;5055236;28;20048;-66
2022/10/23 11:00:43;;;;;;;6.95;3.83;;;15.60;99.90;;;;;;5056416;28;20041;-66
2022/10/23 11:03:22;;;;;;;7.32;3.40;;;15.60;99.90;;;;;;5056463;28;20112;-66
2022/10/23 11:05:49;;;;;;;10.32;4.35;;;15.60;99.90;;;;;;5057328;28;20064;-66
2022/10/23 11:08:26;;;;;;;9.05;6.00;;;15.60;99.90;;;;;;5067814;28;20040;-66
2022/10/23 11:10:58;;;;;;;9.65;3.55;;;15.60;99.90;;;;;;5058268;28;20120;-66
2022/10/23 11:13:36;;;;;;;6.93;3.70;;;15.60;99.90;;;;;;5057337;28;20128;-66
2022/10/23 11:16:10;;;;;;;8.55;3.70;;;15.60;99.90;;;;;;5059348;28;20098;-66
2022/10/23 11:18:39;;;;;;;7.45;3.72;;;15.50;99.90;;;;;;5069319;28;20059;-66
2022/10/23 11:21:23;;;;;;;8.55;4.60;;;15.50;99.90;;;;;;5060148;28;20056;-66
2022/10/23 11:24:40;;;;;;;9.95;3.95;;;15.40;99.90;;;;;;5060290;28;20455;-66
2022/10/23 11:27:30;;;;;;;7.03;4.50;;;15.40;99.90;;;;;;5062062;28;20033;-66
2022/10/23 11:30:18;;;;;;;9.32;4.75;;;15.40;99.90;;;;;;5060794;28;20044;-66
2022/10/23 11:33:20;;;;;;;12.05;4.45;;;15.40;99.90;;;;;;5058974;28;20036;-66
2022/10/23 11:36:13;;;;;;;13.55;4.68;;;15.40;99.90;;;;;;5058977;28;20385;-66
2022/10/23 11:38:42;;;;;;;8.82;4.55;;;15.40;99.90;;;;;;5054454;28;20565;-66
2022/10/23 11:41:32;;;;;;;10.63;4.85;;;15.40;99.90;;;;;;5059780;28;20033;-66
2022/10/23 11:44:04;;;;;;;8.10;4.18;;;15.40;99.90;;;;;;5059063;28;20072;-66
2022/10/23 11:46:35;;;;;;;7.25;4.38;;;15.40;99.90;;;;;;5057502;28;20485;-66
2022/10/23 11:49:04;;;;;;;8.43;4.82;;;15.40;99.90;;;;;;5055914;28;20041;-66
2022/10/23 11:51:40;;;;;;;7.50;4.45;;;15.40;99.90;;;;;;5059251;28;20551;-65
2022/10/23 11:54:21;;;;;;;9.93;3.95;;;15.50;99.90;;;;;;5063670;28;20044;-65
2022/10/23 11:56:52;;;;;;;6.18;4.28;;;15.50;99.90;;;;;;5055291;28;20133;-66
2022/10/23 11:59:29;;;;;;;8.88;4.38;;;15.50;99.90;;;;;;5060706;28;20181;-66
2022/10/23 12:01:58;;;;;;;7.30;4.03;;;15.60;99.90;;;;;;5059973;28;20029;-66
2022/10/23 12:04:38;;;;;;;7.28;4.40;;;15.50;99.90;;;;;;5064506;28;20116;-65
2022/10/23 12:07:22;;;;;;;9.13;4.60;;;15.60;99.90;;;;;;5055514;28;20067;-65
2022/10/23 12:09:56;;;;;;;10.55;4.15;;;15.60;99.90;;;;;;5053637;28;20060;-66
2022/10/23 12:12:41;;;;;;;6.45;4.63;;;15.50;99.90;;;;;;5058817;28;20570;-66
2022/10/23 12:15:17;;;;;;;9.52;4.20;;;15.50;99.90;;;;;;5055120;28;20049;-65
2022/10/23 12:17:44;;;;;;;8.25;3.63;;;15.60;99.90;;;;;;5048932;28;20053;-66
2022/10/23 12:20:10;;;;;;;8.38;3.55;;;15.60;99.90;;;;;;5054733;28;20045;-66
2022/10/23 12:23:02;;;;;;;7.82;3.65;;;15.60;99.90;;;;;;5059087;28;20086;-65
2022/10/23 12:25:40;;;;;;;6.60;3.20;;;15.70;99.90;;;;;;5053030;28;20128;-66
2022/10/23 12:28:23;;;;;;;9.40;3.38;;;15.60;99.90;;;;;;5051280;28;20055;-65
2022/10/23 12:30:52;;;;;;;8.50;3.20;;;15.70;99.90;;;;;;5058096;28;20093;-65
2022/10/23 12:33:36;;;;;;;7.07;3.03;;;15.70;99.90;;;;;;5068614;28;20464;-65
2022/10/23 12:36:21;;;;;;;7.72;3.10;;;15.70;99.90;;;;;;5058587;28;20068;-65
2022/10/23 12:38:48;;;;;;;7.78;2.88;;;15.80;99.90;;;;;;5057611;28;20052;-65
2022/10/23 12:41:25;;;;;;;6.78;3.90;;;15.80;99.90;;;;;;5055602;28;20043;-65
2022/10/23 12:44:03;;;;;;;9.07;3.42;;;15.80;99.90;;;;;;5062637;28;20036;-65
2022/10/23 12:46:35;;;;;;;7.55;3.13;;;15.70;99.90;;;;;;5053779;28;20115;-65
2022/10/23 12:49:11;;;;;;;12.80;3.67;;;15.80;99.90;;;;;;5057029;28;20136;-65
2022/10/23 12:51:37;;;;;;;13.68;3.85;;;15.80;99.90;;;;;;5061545;28;20379;-65
2022/10/23 12:54:13;;;;;;;7.35;3.35;;;15.80;99.90;;;;;;5057886;28;20079;-65